createdAt,value
2023-02-03T00:01:58.022Z,101271.07
2023-02-03T00:04:25.262Z,101273.02
2023-02-03T00:06:52.033Z,101273.98
2023-02-03T00:09:19.813Z,101279.30
2023-02-03T00:11:47.185Z,101268.48
2023-02-03T00:14:13.912Z,101259.78
2023-02-03T00:16:40.976Z,101256.42
2023-02-03T00:19:07.946Z,101251.19
2023-02-03T00:21:34.930Z,101260.53
2023-02-03T00:24:01.891Z,101256.37
2023-02-03T00:26:29.353Z,101246.48
2023-02-03T00:28:56.118Z,101234.61
2023-02-03T00:31:24.481Z,101234.61
2023-02-03T00:33:57.025Z,101229.80
2023-02-03T00:36:24.578Z,101223.91
2023-02-03T00:38:51.620Z,101227.20
2023-02-03T00:41:19.775Z,101236.30
2023-02-03T00:43:46.702Z,101236.61
2023-02-03T00:46:13.720Z,101243.15
2023-02-03T00:48:40.874Z,101232.77
2023-02-03T00:51:07.688Z,101234.54
2023-02-03T00:53:34.545Z,101231.90
2023-02-03T00:56:01.202Z,101234.36
2023-02-03T00:58:27.922Z,101225.52
2023-02-03T01:00:56.851Z,101224.36
2023-02-03T01:03:23.920Z,101224.20
2023-02-03T01:05:50.693Z,101233.05
2023-02-03T01:08:17.835Z,101224.85
2023-02-03T01:10:44.636Z,101226.35
2023-02-03T01:13:11.364Z,101213.28
2023-02-03T01:15:38.249Z,101215.46
2023-02-03T01:18:05.327Z,101222.34
2023-02-03T01:20:32.130Z,101222.83
2023-02-03T01:22:59.152Z,101222.27
2023-02-03T01:25:26.053Z,101228.73
2023-02-03T01:27:52.944Z,101233.41
2023-02-03T01:30:19.882Z,101231.88
2023-02-03T01:32:46.930Z,101224.40
2023-02-03T01:35:13.699Z,101235.17
2023-02-03T01:37:40.785Z,101229.31
2023-02-03T01:40:08.412Z,101218.89
2023-02-03T01:42:35.394Z,101234.03
2023-02-03T01:45:02.281Z,101224.72
2023-02-03T01:48:00.144Z,101232.40
2023-02-03T01:50:36.266Z,101232.49
2023-02-03T01:53:07.016Z,101224.15
2023-02-03T01:55:38.511Z,101224.66
2023-02-03T01:58:25.728Z,101202.39
2023-02-03T02:00:52.676Z,101201.11
2023-02-03T02:03:21.418Z,101201.66
2023-02-03T02:05:57.846Z,101192.45
2023-02-03T02:08:25.211Z,101184.81
2023-02-03T02:10:53.113Z,101170.71
2023-02-03T02:13:21.318Z,101173.48
2023-02-03T02:15:56.963Z,101163.88
2023-02-03T02:18:42.775Z,101158.93
2023-02-03T02:21:23.175Z,101149.20
2023-02-03T02:23:52.826Z,101147.50
2023-02-03T02:26:48.518Z,101160.89
2023-02-03T02:29:28.695Z,101144.88
2023-02-03T02:32:15.485Z,101126.98
2023-02-03T02:34:58.551Z,101113.77
2023-02-03T02:37:44.062Z,101114.05
2023-02-03T02:40:23.921Z,101108.54
2023-02-03T02:42:59.804Z,101125.17
2023-02-03T02:45:56.132Z,101121.09
2023-02-03T02:48:24.887Z,101124.13
2023-02-03T02:50:55.427Z,101123.14
2023-02-03T02:53:25.995Z,101119.95
2023-02-03T02:55:54.164Z,101118.33
2023-02-03T02:58:23.324Z,101109.55
2023-02-03T03:00:50.170Z,101100.55
2023-02-03T03:03:22.684Z,101086.99
2023-02-03T03:05:55.135Z,101085.51
2023-02-03T03:08:43.395Z,101096.75
2023-02-03T03:11:10.697Z,101098.89
2023-02-03T03:13:44.245Z,101105.19
2023-02-03T03:16:13.939Z,101094.28
2023-02-03T03:18:46.461Z,101107.39
2023-02-03T03:21:19.772Z,101116.27
2023-02-03T03:23:51.073Z,101119.78
2023-02-03T03:26:32.738Z,101108.92
2023-02-03T03:29:18.310Z,101098.27
2023-02-03T03:31:45.693Z,101094.32
2023-02-03T03:34:14.077Z,101106.23
2023-02-03T03:37:08.922Z,101101.28
2023-02-03T03:39:49.533Z,101087.85
2023-02-03T03:42:38.929Z,101080.51
2023-02-03T03:45:32.232Z,101083.98
2023-02-03T03:48:21.766Z,101091.95
2023-02-03T03:50:53.380Z,101066.83
2023-02-03T03:53:23.403Z,101063.87
2023-02-03T03:55:53.633Z,101048.34
2023-02-03T03:58:31.692Z,101059.79
2023-02-03T04:01:02.064Z,101055.23
2023-02-03T04:03:37.255Z,101050.86
2023-02-03T04:06:07.642Z,101051.33
2023-02-03T04:08:34.792Z,101057.14
2023-02-03T04:11:01.821Z,101051.42
2023-02-03T04:13:29.350Z,101035.59
2023-02-03T04:15:56.125Z,101038.98
2023-02-03T04:18:23.020Z,101051.38
2023-02-03T04:20:49.889Z,101030.33
2023-02-03T04:23:16.983Z,101046.33
2023-02-03T04:25:43.984Z,101053.17
2023-02-03T04:28:10.775Z,101039.67
2023-02-03T04:30:37.848Z,101056.32
2023-02-03T04:33:04.922Z,101041.31
2023-02-03T04:35:31.753Z,101040.77
2023-02-03T04:37:58.940Z,101044.49
2023-02-03T04:40:26.441Z,101059.60
2023-02-03T04:42:53.715Z,101040.92
2023-02-03T04:45:20.633Z,101045.30
2023-02-03T04:47:54.393Z,101053.36
2023-02-03T04:50:21.720Z,101040.13
2023-02-03T04:52:48.534Z,101039.94
2023-02-03T04:55:15.415Z,101027.40
2023-02-03T04:57:42.665Z,101031.96
2023-02-03T05:00:10.686Z,101026.06
2023-02-03T05:02:37.565Z,101027.27
2023-02-03T05:05:04.946Z,101018.13
2023-02-03T05:07:31.954Z,101017.11
2023-02-03T05:09:58.907Z,101014.37
2023-02-03T05:12:25.644Z,101025.77
2023-02-03T05:14:52.642Z,101009.17
2023-02-03T05:17:19.432Z,101009.45
2023-02-03T05:19:46.342Z,101004.10
2023-02-03T05:22:13.391Z,100991.05
2023-02-03T05:24:40.063Z,100992.73
2023-02-03T05:27:06.894Z,101003.31
2023-02-03T05:29:33.676Z,100979.27
2023-02-03T05:32:00.662Z,100967.57
2023-02-03T05:34:27.570Z,100957.20
2023-02-03T05:36:54.595Z,100952.04
2023-02-03T05:39:21.564Z,100965.94
2023-02-03T05:41:57.119Z,100953.11
2023-02-03T05:44:27.630Z,100964.85
2023-02-03T05:46:56.305Z,100939.92
2023-02-03T05:49:23.814Z,100958.91
2023-02-03T05:51:53.798Z,100959.52
2023-02-03T05:54:20.842Z,100962.36
2023-02-03T05:56:47.968Z,100956.71
2023-02-03T05:59:14.933Z,100959.62
2023-02-03T06:01:41.955Z,100960.29
2023-02-03T06:04:09.011Z,100953.24
2023-02-03T06:06:35.957Z,100956.08
2023-02-03T06:09:05.219Z,100964.25
2023-02-03T06:11:32.682Z,100954.05
2023-02-03T06:13:59.884Z,100970.67
2023-02-03T06:16:27.742Z,100961.73
2023-02-03T06:18:58.404Z,100968.80
2023-02-03T06:21:25.457Z,100980.14
2023-02-03T06:23:52.259Z,100989.41
2023-02-03T06:26:19.259Z,100973.48
2023-02-03T06:28:46.153Z,100969.40
2023-02-03T06:31:13.200Z,100960.54
2023-02-03T06:33:39.836Z,100960.72
2023-02-03T06:36:07.156Z,100956.48
2023-02-03T06:38:33.988Z,100961.14
2023-02-03T06:41:00.666Z,100959.83
2023-02-03T06:43:27.840Z,100961.81
2023-02-03T06:45:54.799Z,100954.24
2023-02-03T06:48:21.819Z,100957.38
2023-02-03T06:50:48.898Z,100973.45
2023-02-03T06:53:16.200Z,100965.48
2023-02-03T06:55:43.082Z,100950.45
2023-02-03T06:58:09.683Z,100948.63
2023-02-03T07:00:36.851Z,100933.34
2023-02-03T07:03:04.440Z,100929.89
2023-02-03T07:05:31.445Z,100939.65
2023-02-03T07:07:59.044Z,100920.80
2023-02-03T07:10:25.893Z,100916.11
2023-02-03T07:12:53.102Z,100920.83
2023-02-03T07:15:20.076Z,100925.87
2023-02-03T07:17:54.674Z,100916.05
2023-02-03T07:20:22.437Z,100940.23
2023-02-03T07:22:53.614Z,100937.11
2023-02-03T07:25:20.590Z,100935.14
2023-02-03T07:27:47.764Z,100915.63
2023-02-03T07:30:14.926Z,100918.77
2023-02-03T07:32:41.685Z,100935.09
2023-02-03T07:35:08.749Z,100919.64
2023-02-03T07:37:36.057Z,100919.45
2023-02-03T07:40:02.859Z,100919.91
2023-02-03T07:42:29.791Z,100925.08
2023-02-03T07:44:56.891Z,100905.79
2023-02-03T07:47:23.556Z,100897.61
2023-02-03T07:49:50.112Z,100892.66
2023-02-03T07:52:17.035Z,100888.36
2023-02-03T07:54:43.569Z,100884.88
2023-02-03T07:57:10.462Z,100895.15
2023-02-03T07:59:37.195Z,100919.09
2023-02-03T08:02:03.975Z,100899.20
2023-02-03T08:04:31.039Z,100893.85
2023-02-03T08:06:57.761Z,100899.31
2023-02-03T08:09:24.714Z,100903.00
2023-02-03T08:11:51.458Z,100901.23
2023-02-03T08:14:18.407Z,100912.21
2023-02-03T08:16:46.181Z,100887.96
2023-02-03T08:19:13.179Z,100891.80
2023-02-03T08:21:39.901Z,100900.73
2023-02-03T08:24:07.067Z,100897.73
2023-02-03T08:26:33.672Z,100902.48
2023-02-03T08:29:00.818Z,100899.74
2023-02-03T08:31:27.562Z,100884.50
2023-02-03T08:33:54.360Z,100887.07
2023-02-03T08:36:21.172Z,100894.98
2023-02-03T08:38:47.914Z,100914.80
2023-02-03T08:41:18.080Z,100917.64
2023-02-03T08:43:45.673Z,100920.68
2023-02-03T08:46:13.366Z,100918.58
2023-02-03T08:48:40.987Z,100917.57
2023-02-03T08:51:16.971Z,100912.75
2023-02-03T08:53:44.178Z,100903.54
2023-02-03T08:56:12.407Z,100883.81
2023-02-03T08:58:39.747Z,100891.34
2023-02-03T09:01:15.769Z,100890.48
2023-02-03T09:03:43.593Z,100906.23
2023-02-03T09:06:13.216Z,100903.64
2023-02-03T09:08:40.203Z,100912.14
2023-02-03T09:11:16.034Z,100925.91
2023-02-03T09:13:46.101Z,100920.77
2023-02-03T09:16:13.769Z,100913.44
2023-02-03T09:18:40.573Z,100918.27
2023-02-03T09:21:13.970Z,100911.41
2023-02-03T09:23:47.661Z,100913.90
2023-02-03T09:26:15.682Z,100898.92
2023-02-03T09:28:42.865Z,100897.16
2023-02-03T09:31:15.392Z,100900.27
2023-02-03T09:33:42.433Z,100906.98
2023-02-03T09:36:10.855Z,100898.16
2023-02-03T09:38:37.451Z,100904.46
2023-02-03T09:41:21.148Z,100880.70
2023-02-03T09:44:15.940Z,100881.70
2023-02-03T09:46:46.848Z,100884.77
2023-02-03T09:49:24.759Z,100874.23
2023-02-03T09:52:06.056Z,100891.86
2023-02-03T09:55:24.627Z,100896.58
2023-02-03T09:58:01.756Z,100899.29
2023-02-03T10:00:35.379Z,100894.29
2023-02-03T10:03:33.608Z,100898.02
2023-02-03T10:06:28.899Z,100879.30
2023-02-03T10:09:20.512Z,100883.35
2023-02-03T10:12:22.407Z,100885.08
2023-02-03T10:15:04.491Z,100887.20
2023-02-03T10:17:33.723Z,100887.55
2023-02-03T10:20:09.164Z,100887.30
2023-02-03T10:22:54.704Z,100902.87
2023-02-03T10:25:36.182Z,100893.31
2023-02-03T10:28:09.607Z,100925.20
2023-02-03T10:30:47.845Z,100922.68
2023-02-03T10:33:17.609Z,100942.77
2023-02-03T10:35:54.347Z,100941.76
2023-02-03T10:38:29.864Z,100956.18
2023-02-03T10:40:57.029Z,100944.39
2023-02-03T10:43:42.304Z,100949.42
2023-02-03T10:46:09.007Z,100938.59
2023-02-03T10:48:36.144Z,100947.14
2023-02-03T10:51:03.327Z,100950.16
2023-02-03T10:53:35.496Z,100971.72
2023-02-03T10:56:13.532Z,100946.77
2023-02-03T10:58:50.510Z,100966.30
2023-02-03T11:01:21.642Z,100980.63
2023-02-03T11:03:59.617Z,100985.32
2023-02-03T11:06:26.731Z,100975.56
2023-02-03T11:08:56.640Z,100980.55
2023-02-03T11:11:33.921Z,100974.11
2023-02-03T11:14:03.541Z,100976.05
2023-02-03T11:16:35.046Z,100977.48
2023-02-03T11:19:03.287Z,100988.39
2023-02-03T11:21:39.484Z,100995.27
2023-02-03T11:24:27.169Z,100981.91
2023-02-03T11:27:06.856Z,100997.33
2023-02-03T11:29:44.462Z,100986.77
2023-02-03T11:32:23.721Z,100998.06
2023-02-03T11:35:00.523Z,100992.75
2023-02-03T11:37:33.165Z,100999.69
2023-02-03T11:40:10.940Z,100997.76
2023-02-03T11:42:42.370Z,100989.19
2023-02-03T11:45:18.197Z,101003.80
2023-02-03T11:47:47.165Z,101007.39
2023-02-03T11:50:39.533Z,101007.43
2023-02-03T11:53:23.897Z,101014.20
2023-02-03T11:56:03.747Z,101007.36
2023-02-03T11:58:52.427Z,101013.34
2023-02-03T12:01:21.865Z,101009.83
2023-02-03T12:04:27.686Z,101019.30
2023-02-03T12:07:03.288Z,101005.08
2023-02-03T12:09:40.213Z,101012.10
2023-02-03T12:12:34.119Z,101009.75
2023-02-03T12:15:19.447Z,101022.94
2023-02-03T12:17:58.607Z,101025.33
2023-02-03T12:21:03.137Z,101005.37
2023-02-03T12:23:51.716Z,101028.83
2023-02-03T12:26:29.547Z,101013.84
2023-02-03T12:29:05.007Z,101019.68
2023-02-03T12:31:52.206Z,101021.54
2023-02-03T12:34:33.055Z,101029.15
2023-02-03T12:37:10.420Z,101045.30
2023-02-03T12:39:45.620Z,101050.42
2023-02-03T12:42:24.164Z,101056.04
2023-02-03T12:44:57.551Z,101061.48
2023-02-03T12:47:44.341Z,101058.02
2023-02-03T12:50:10.872Z,101079.29
2023-02-03T12:52:45.231Z,101047.77
2023-02-03T12:55:36.622Z,101066.64
2023-02-03T12:58:20.542Z,101060.79
2023-02-03T13:00:54.693Z,101074.40
2023-02-03T13:03:35.006Z,101060.91
2023-02-03T13:06:32.351Z,101071.95
2023-02-03T13:09:36.528Z,101072.48
2023-02-03T13:12:31.262Z,101057.85
2023-02-03T13:15:09.713Z,101090.27
2023-02-03T13:17:59.449Z,101083.26
2023-02-03T13:20:31.611Z,101081.70
2023-02-03T13:22:58.342Z,101076.23
2023-02-03T13:25:27.133Z,101071.95
2023-02-03T13:28:53.101Z,101073.64
2023-02-03T13:31:32.261Z,101086.14
2023-02-03T13:34:23.352Z,101089.98
2023-02-03T13:37:21.199Z,101064.89
2023-02-03T13:40:11.807Z,101059.80
2023-02-03T13:42:45.757Z,101090.52
2023-02-03T13:45:33.730Z,101058.40
2023-02-03T13:48:10.670Z,101093.61
2023-02-03T13:50:38.817Z,101065.41
2023-02-03T13:53:24.029Z,101084.31
2023-02-03T13:56:02.608Z,101084.36
2023-02-03T13:58:39.755Z,101085.27
2023-02-03T14:01:30.280Z,101076.67
2023-02-03T14:03:58.378Z,101092.42
2023-02-03T14:06:40.238Z,101088.09
2023-02-03T14:09:25.314Z,101109.70
2023-02-03T14:12:12.351Z,101101.70
2023-02-03T14:14:38.953Z,101097.41
2023-02-03T14:17:28.662Z,101101.92
2023-02-03T14:19:55.867Z,101106.13
2023-02-03T14:22:22.638Z,101105.94
2023-02-03T14:24:49.932Z,101120.61
2023-02-03T14:27:28.488Z,101144.77
2023-02-03T14:30:16.734Z,101115.49
2023-02-03T14:33:02.834Z,101125.64
2023-02-03T14:35:35.960Z,101130.53
2023-02-03T14:38:07.097Z,101129.27
2023-02-03T14:40:56.215Z,101137.25
2023-02-03T14:43:35.050Z,101163.27
2023-02-03T14:46:26.689Z,101157.71
2023-02-03T14:49:08.679Z,101162.07
2023-02-03T14:51:47.342Z,101145.49
2023-02-03T14:54:49.950Z,101142.42
2023-02-03T14:57:16.424Z,101159.61
2023-02-03T15:00:03.505Z,101156.55
2023-02-03T15:02:31.857Z,101182.32
2023-02-03T15:05:14.256Z,101176.02
2023-02-03T15:07:49.453Z,101181.00
2023-02-03T15:10:30.055Z,101180.67
2023-02-03T15:12:58.885Z,101178.59
2023-02-03T15:15:28.645Z,101175.63
2023-02-03T15:17:58.118Z,101179.67
2023-02-03T15:20:43.415Z,101171.59
2023-02-03T15:23:30.981Z,101181.01
2023-02-03T15:26:12.814Z,101172.73
2023-02-03T15:28:39.379Z,101182.45
2023-02-03T15:31:09.414Z,101188.83
2023-02-03T15:33:38.233Z,101179.39
2023-02-03T15:36:29.336Z,101184.27
2023-02-03T15:39:14.420Z,101198.52
2023-02-03T15:41:41.953Z,101186.48
2023-02-03T15:44:17.540Z,101203.23
2023-02-03T15:46:49.144Z,101216.02
2023-02-03T15:49:19.222Z,101222.97
2023-02-03T15:51:50.728Z,101220.36
2023-02-03T15:54:24.511Z,101238.39
2023-02-03T15:56:59.223Z,101228.87
2023-02-03T15:59:36.749Z,101246.23
2023-02-03T16:02:29.639Z,101252.86
2023-02-03T16:04:57.002Z,101249.55
2023-02-03T16:07:27.711Z,101253.83
2023-02-03T16:09:56.016Z,101255.08
2023-02-03T16:12:31.038Z,101286.25
2023-02-03T16:14:59.855Z,101285.48
2023-02-03T16:17:32.979Z,101303.46
2023-02-03T16:20:11.795Z,101286.39
2023-02-03T16:22:59.491Z,101286.94
2023-02-03T16:25:29.965Z,101282.74
2023-02-03T16:28:16.973Z,101277.20
2023-02-03T16:31:18.535Z,101287.58
2023-02-03T16:34:09.312Z,101280.44
2023-02-03T16:37:03.550Z,101308.96
2023-02-03T16:39:48.779Z,101300.27
2023-02-03T16:42:39.340Z,101311.41
2023-02-03T16:45:36.314Z,101293.13
2023-02-03T16:48:22.718Z,101298.98
2023-02-03T16:50:53.217Z,101301.39
2023-02-03T16:53:25.227Z,101290.90
2023-02-03T16:55:54.590Z,101320.67
2023-02-03T16:58:21.682Z,101313.30
2023-02-03T17:00:50.618Z,101318.13
2023-02-03T17:03:23.446Z,101305.44
2023-02-03T17:05:51.389Z,101298.47
2023-02-03T17:08:20.598Z,101294.05
2023-02-03T17:10:50.126Z,101283.71
2023-02-03T17:13:18.852Z,101289.27
2023-02-03T17:15:48.155Z,101281.02
2023-02-03T17:18:15.652Z,101269.48
2023-02-03T17:20:43.789Z,101284.31
2023-02-03T17:23:11.194Z,101308.69
2023-02-03T17:25:39.085Z,101329.59
2023-02-03T17:28:08.278Z,101306.54
2023-02-03T17:30:35.526Z,101317.64
2023-02-03T17:33:07.895Z,101308.54
2023-02-03T17:35:34.768Z,101312.48
2023-02-03T17:38:01.569Z,101307.88
2023-02-03T17:54:14.472Z,101343.58
2023-02-03T17:56:41.282Z,101337.29
2023-02-03T17:59:08.438Z,101357.05
2023-02-03T18:01:35.357Z,101344.44
2023-02-03T18:04:03.544Z,101343.02
2023-02-03T18:06:31.468Z,101349.34
2023-02-03T18:09:01.309Z,101349.70
2023-02-03T18:11:29.964Z,101346.23
2023-02-03T18:13:56.867Z,101353.09
2023-02-03T18:16:26.562Z,101351.64
2023-02-03T18:18:53.767Z,101347.88
2023-02-03T18:21:22.280Z,101351.73
2023-02-03T18:23:51.038Z,101373.19
2023-02-03T18:26:20.163Z,101367.19
2023-02-03T18:28:50.780Z,101390.33
2023-02-03T18:31:18.341Z,101388.05
2023-02-03T18:33:46.533Z,101397.30
2023-02-03T18:36:14.862Z,101421.02
2023-02-03T18:38:43.897Z,101392.14
2023-02-03T18:41:21.613Z,101404.40
2023-02-03T18:43:49.327Z,101412.77
2023-02-03T18:46:27.030Z,101429.27
2023-02-03T18:48:53.990Z,101437.04
2023-02-03T18:51:21.597Z,101420.69
2023-02-03T18:53:49.257Z,101421.21
2023-02-03T18:56:21.957Z,101424.89
2023-02-03T18:58:49.169Z,101438.20
2023-02-03T19:01:30.039Z,101462.59
2023-02-03T19:03:59.173Z,101444.98
2023-02-03T19:06:27.886Z,101443.06
2023-02-03T19:08:54.664Z,101451.02
2023-02-03T19:11:21.338Z,101457.91
2023-02-03T19:13:48.271Z,101466.73
2023-02-03T19:16:17.435Z,101471.21
2023-02-03T19:18:45.573Z,101468.31
2023-02-03T19:21:13.316Z,101487.41
2023-02-03T19:23:43.375Z,101477.32
2023-02-03T19:26:10.579Z,101493.00
2023-02-03T19:28:37.976Z,101477.17
2023-02-03T19:31:08.313Z,101497.64
2023-02-03T19:33:35.844Z,101487.21
2023-02-03T19:36:03.406Z,101480.52
2023-02-03T19:38:30.250Z,101486.23
2023-02-03T19:40:57.124Z,101503.46
2023-02-03T19:43:24.772Z,101509.16
2023-02-03T19:45:51.798Z,101504.33
2023-02-03T19:48:19.043Z,101503.46
2023-02-03T19:50:49.169Z,101513.48
2023-02-03T19:53:17.323Z,101515.65
2023-02-03T19:55:45.323Z,101526.38
2023-02-03T19:58:13.329Z,101533.87
2023-02-03T20:00:40.665Z,101536.27
2023-02-03T20:03:07.602Z,101538.69
2023-02-03T20:05:36.032Z,101532.72
2023-02-03T20:08:03.578Z,101537.35
2023-02-03T20:10:32.425Z,101530.36
2023-02-03T20:12:59.630Z,101530.46
2023-02-03T20:15:26.857Z,101553.95
2023-02-03T20:17:53.596Z,101554.88
2023-02-03T20:20:21.096Z,101568.35
2023-02-03T20:22:48.276Z,101554.34
2023-02-03T20:25:15.172Z,101565.61
2023-02-03T20:27:42.549Z,101569.60
2023-02-03T20:30:09.885Z,101552.95
2023-02-03T20:32:36.788Z,101560.81
2023-02-03T20:35:04.842Z,101563.23
2023-02-03T20:37:32.120Z,101567.67
2023-02-03T20:39:59.108Z,101577.89
2023-02-03T20:42:25.871Z,101585.40
2023-02-03T20:44:52.507Z,101583.45
2023-02-03T20:47:19.501Z,101593.38
2023-02-03T20:49:47.881Z,101603.85
2023-02-03T20:52:17.294Z,101601.65
2023-02-03T20:54:44.387Z,101611.71
2023-02-03T20:57:18.628Z,101616.08
2023-02-03T20:59:46.562Z,101610.40
2023-02-03T21:02:33.608Z,101631.61
2023-02-03T21:05:02.106Z,101634.69
2023-02-03T21:07:30.808Z,101635.90
2023-02-03T21:09:59.204Z,101645.23
2023-02-03T21:12:28.120Z,101638.66
2023-02-03T21:14:55.148Z,101654.30
2023-02-03T21:17:25.622Z,101646.50
2023-02-03T21:19:53.611Z,101649.63
2023-02-03T21:22:23.837Z,101647.38
2023-02-03T21:24:57.075Z,101656.64
2023-02-03T21:27:34.687Z,101664.13
2023-02-03T21:30:21.116Z,101670.02
2023-02-03T21:32:48.047Z,101679.29
2023-02-03T21:35:25.333Z,101677.63
2023-02-03T21:38:01.684Z,101679.86
2023-02-03T21:40:33.894Z,101679.05
2023-02-03T21:43:03.181Z,101684.63
2023-02-03T21:45:37.289Z,101694.77
2023-02-03T21:48:24.194Z,101692.16
2023-02-03T21:50:51.225Z,101700.54
2023-02-03T21:53:50.824Z,101706.45
2023-02-03T21:56:30.065Z,101709.84
2023-02-03T21:58:58.776Z,101714.09
2023-02-03T22:01:26.947Z,101717.67
2023-02-03T22:03:55.500Z,101722.64
2023-02-03T22:06:28.446Z,101722.64
2023-02-03T22:08:58.432Z,101719.29
2023-02-03T22:11:28.376Z,101729.34
2023-02-03T22:13:55.601Z,101730.26
2023-02-03T22:16:22.892Z,101735.27
2023-02-03T22:18:49.809Z,101740.48
2023-02-03T22:21:17.442Z,101728.50
2023-02-03T22:23:45.058Z,101738.31
2023-02-03T22:26:13.961Z,101748.29
2023-02-03T22:28:41.133Z,101754.52
2023-02-03T22:31:09.251Z,101766.61
2023-02-03T22:33:36.188Z,101773.93
2023-02-03T22:36:04.078Z,101783.89
2023-02-03T22:38:31.014Z,101797.73
2023-02-03T22:40:57.821Z,101808.65
2023-02-03T22:43:25.173Z,101813.20
2023-02-03T22:45:52.547Z,101806.36
2023-02-03T22:48:19.428Z,101816.83
2023-02-03T22:50:46.652Z,101828.63
2023-02-03T22:53:14.556Z,101828.92
2023-02-03T22:55:41.432Z,101829.58
2023-02-03T22:58:08.418Z,101832.23
2023-02-03T23:00:35.321Z,101831.86
2023-02-03T23:03:02.077Z,101838.89
2023-02-03T23:05:28.798Z,101841.92
2023-02-03T23:07:55.565Z,101851.14
2023-02-03T23:10:25.012Z,101861.24
2023-02-03T23:12:52.271Z,101857.27
2023-02-03T23:15:19.148Z,101864.73
2023-02-03T23:17:46.002Z,101865.64
2023-02-03T23:20:15.062Z,101882.64
2023-02-03T23:22:43.292Z,101883.28
2023-02-03T23:25:10.527Z,101894.66
2023-02-03T23:27:37.046Z,101901.61
2023-02-03T23:30:05.121Z,101906.55
2023-02-03T23:32:33.656Z,101913.29
2023-02-03T23:35:19.955Z,101915.73
2023-02-03T23:37:46.774Z,101923.95
2023-02-03T23:40:13.973Z,101926.44
2023-02-03T23:42:40.713Z,101930.84
2023-02-03T23:45:11.664Z,101937.85
2023-02-03T23:47:40.146Z,101948.48
2023-02-03T23:50:08.419Z,101956.52
2023-02-03T23:52:35.863Z,101962.31
2023-02-03T23:55:09.140Z,101963.42
2023-02-03T23:57:36.455Z,101969.38
